Time;durP1;ratioP1;P1;durP2;ratioP2;P2;SDS_P1;SDS_P2;PMS_P1;PMS_P2;Temp;Humidity;BMP_temperature;BMP_pressure;BME280_temperature;BME280_humidity;BME280_pressure;Samples;Min_cycle;Max_cycle;Signal;HPM_P1;HPM_P2
2022/10/12 00:01:44;;;;;;;14.93;4.70;;;10.30;99.90;;;;;;5040941;28;20457;-75
2022/10/12 00:04:29;;;;;;;7.73;3.80;;;10.20;99.90;;;;;;5030268;28;20444;-76
2022/10/12 00:07:15;;;;;;;9.20;3.63;;;10.10;99.90;;;;;;5033210;28;20814;-75
2022/10/12 00:10:01;;;;;;;8.40;3.60;;;10.10;99.90;;;;;;5028130;28;20530;-76
2022/10/12 00:12:47;;;;;;;6.40;4.00;;;10.10;99.90;;;;;;5034269;28;20890;-75
2022/10/12 00:15:36;;;;;;;7.87;4.30;;;10.20;99.90;;;;;;5036789;28;20521;-76
2022/10/12 00:18:23;;;;;;;6.13;3.50;;;10.30;99.90;;;;;;5037924;28;20419;-76
2022/10/12 00:21:10;;;;;;;9.87;4.47;;;10.20;99.90;;;;;;5041340;28;20965;-75
2022/10/12 00:23:57;;;;;;;9.30;4.17;;;10.30;99.90;;;;;;5036694;28;20426;-75
2022/10/12 00:26:43;;;;;;;12.47;4.10;;;10.40;99.90;;;;;;5039145;28;20443;-76
2022/10/12 00:29:28;;;;;;;11.10;3.97;;;10.50;99.90;;;;;;5028737;28;20851;-75
2022/10/12 00:32:15;;;;;;;6.00;4.00;;;10.60;99.90;;;;;;5032380;28;20480;-76
2022/10/12 00:35:01;;;;;;;12.60;4.00;;;10.60;99.90;;;;;;5028696;28;20469;-75
2022/10/12 00:37:47;;;;;;;10.10;4.23;;;10.60;99.90;;;;;;5035389;28;20410;-75
2022/10/12 00:40:32;;;;;;;6.90;4.10;;;10.60;99.90;;;;;;5037018;28;20463;-75
2022/10/12 00:43:28;;;;;;;5.97;3.50;;;10.50;99.90;;;;;;5027966;28;20437;-75
2022/10/12 00:46:20;;;;;;;7.30;3.70;;;10.40;99.90;;;;;;5030948;28;20413;-76
2022/10/12 00:49:12;;;;;;;5.77;3.57;;;10.30;99.90;;;;;;5033865;28;20449;-76
2022/10/12 00:52:05;;;;;;;16.73;2.87;;;10.20;99.90;;;;;;5032341;28;20474;-75
2022/10/12 00:54:52;;;;;;;6.13;2.87;;;10.30;99.90;;;;;;5025876;28;20543;-76
2022/10/12 00:57:38;;;;;;;6.90;3.40;;;10.20;99.90;;;;;;5031241;28;20957;-76
2022/10/12 01:00:24;;;;;;;12.53;3.30;;;10.10;99.90;;;;;;5037860;28;20454;-75
2022/10/12 01:03:11;;;;;;;15.23;4.03;;;10.00;99.90;;;;;;5032628;28;20482;-75
2022/10/12 01:05:59;;;;;;;5.10;2.97;;;9.90;99.90;;;;;;5029057;28;20437;-75
2022/10/12 01:08:46;;;;;;;15.97;3.23;;;10.00;99.90;;;;;;5032306;28;20478;-75
2022/10/12 01:11:31;;;;;;;6.93;2.83;;;10.00;99.90;;;;;;5041063;28;20456;-75
2022/10/12 01:14:17;;;;;;;10.07;3.20;;;9.90;99.90;;;;;;5028796;28;20555;-76
2022/10/12 01:17:14;;;;;;;4.63;2.50;;;9.70;99.90;;;;;;5034497;28;20909;-76
2022/10/12 01:20:28;;;;;;;6.60;2.50;;;9.80;99.90;;;;;;5037694;28;20815;-75
2022/10/12 01:23:49;;;;;;;8.63;3.23;;;9.80;99.90;;;;;;5028602;28;20473;-76
2022/10/12 01:27:01;;;;;;;6.90;2.83;;;9.70;99.90;;;;;;5028933;28;20452;-75
2022/10/12 01:30:11;;;;;;;7.00;2.90;;;9.70;99.90;;;;;;5029388;28;21081;-75
2022/10/12 01:33:25;;;;;;;8.17;3.77;;;9.60;99.90;;;;;;5036907;28;20582;-75
2022/10/12 01:36:17;;;;;;;3.77;2.67;;;9.50;99.90;;;;;;5037284;28;20804;-75
2022/10/12 01:39:12;;;;;;;12.20;3.40;;;9.50;99.90;;;;;;5026926;28;20941;-75
2022/10/12 01:42:00;;;;;;;9.73;3.30;;;9.50;99.90;;;;;;5040312;28;20492;-75
2022/10/12 01:44:45;;;;;;;9.33;3.40;;;9.40;99.90;;;;;;5041059;28;20491;-75
2022/10/12 01:47:33;;;;;;;5.83;3.33;;;9.40;99.90;;;;;;5038298;28;20421;-76
2022/10/12 01:50:21;;;;;;;6.30;3.00;;;9.30;99.90;;;;;;5037234;28;20433;-75
2022/10/12 01:53:19;;;;;;;11.10;3.90;;;9.30;99.90;;;;;;5033856;28;20456;-75
2022/10/12 01:56:11;;;;;;;8.67;3.47;;;9.40;99.90;;;;;;5025566;28;20515;-76
2022/10/12 01:59:05;;;;;;;7.87;2.70;;;9.40;99.90;;;;;;5039908;28;20414;-75
2022/10/12 02:01:57;;;;;;;4.93;2.90;;;9.50;99.90;;;;;;5040997;28;21215;-75
2022/10/12 02:04:49;;;;;;;7.80;2.97;;;9.50;99.90;;;;;;5028103;28;20503;-75
2022/10/12 02:07:42;;;;;;;8.53;2.93;;;9.60;99.90;;;;;;5030722;28;21234;-75
2022/10/12 02:10:33;;;;;;;7.87;3.13;;;9.70;99.90;;;;;;5035667;28;20448;-74
2022/10/12 02:13:20;;;;;;;12.87;3.07;;;9.80;99.90;;;;;;5033285;28;20439;-75
2022/10/12 02:16:10;;;;;;;9.50;3.33;;;9.90;99.90;;;;;;5027339;28;20452;-75
2022/10/12 02:18:59;;;;;;;8.93;3.20;;;9.90;99.90;;;;;;5029517;28;20409;-75
2022/10/12 02:21:47;;;;;;;12.83;3.80;;;9.90;99.90;;;;;;5045019;28;20458;-75
2022/10/12 02:24:36;;;;;;;11.40;3.63;;;10.00;99.90;;;;;;5029119;28;20437;-75
2022/10/12 02:27:23;;;;;;;7.70;3.77;;;10.00;99.90;;;;;;5026559;28;20498;-76
2022/10/12 02:30:10;;;;;;;9.33;3.50;;;10.10;99.90;;;;;;5029026;28;20411;-75
2022/10/12 02:33:02;;;;;;;10.50;5.30;;;10.10;99.90;;;;;;5030684;28;20467;-75
2022/10/12 02:35:52;;;;;;;12.77;5.70;;;10.20;99.90;;;;;;5025559;28;20421;-76
2022/10/12 02:38:43;;;;;;;7.33;4.20;;;10.20;99.90;;;;;;5038354;28;21060;-76
2022/10/12 02:41:33;;;;;;;7.03;3.40;;;10.30;99.90;;;;;;5032304;28;20830;-76
2022/10/12 02:44:23;;;;;;;7.10;3.80;;;10.30;99.90;;;;;;5027922;28;20440;-75
2022/10/12 02:47:11;;;;;;;11.97;4.10;;;10.30;99.90;;;;;;5033123;28;20635;-75
2022/10/12 02:49:59;;;;;;;8.57;3.40;;;10.20;99.90;;;;;;5035078;28;20441;-76
2022/10/12 02:52:46;;;;;;;8.87;3.47;;;10.30;99.90;;;;;;5036597;28;20439;-76
2022/10/12 02:55:38;;;;;;;6.10;3.60;;;10.20;99.90;;;;;;5031275;28;20447;-75
2022/10/12 02:58:23;;;;;;;4.83;3.30;;;10.30;99.90;;;;;;5032583;28;20955;-75
2022/10/12 03:01:09;;;;;;;6.80;3.43;;;10.30;99.90;;;;;;5035535;28;20483;-75
2022/10/12 03:03:55;;;;;;;9.10;2.97;;;10.30;99.90;;;;;;5032001;28;21054;-75
2022/10/12 03:06:41;;;;;;;7.03;3.07;;;10.30;99.90;;;;;;5033705;28;20434;-76
2022/10/12 03:09:27;;;;;;;11.93;6.13;;;10.40;99.90;;;;;;5033273;28;20513;-75
2022/10/12 03:12:14;;;;;;;7.80;2.60;;;10.30;99.90;;;;;;5035800;28;20455;-76
2022/10/12 03:15:00;;;;;;;5.33;3.33;;;10.40;99.90;;;;;;5034617;28;21010;-75
2022/10/12 03:17:46;;;;;;;6.63;2.70;;;10.40;99.90;;;;;;5027937;28;20489;-76
2022/10/12 03:20:31;;;;;;;6.20;2.90;;;10.30;99.90;;;;;;5036982;28;20475;-76
2022/10/12 03:23:17;;;;;;;7.27;2.47;;;10.20;99.90;;;;;;5029268;28;20415;-75
2022/10/12 03:26:02;;;;;;;7.70;2.87;;;10.20;99.90;;;;;;5026671;28;20600;-76
2022/10/12 03:28:50;;;;;;;7.63;2.90;;;10.20;99.90;;;;;;5039128;28;20507;-75
2022/10/12 03:31:35;;;;;;;4.97;3.13;;;10.20;99.90;;;;;;5036608;28;20534;-75
2022/10/12 03:34:21;;;;;;;4.90;2.83;;;10.10;99.90;;;;;;5035777;28;21019;-76
2022/10/12 03:37:07;;;;;;;5.70;2.73;;;10.00;99.90;;;;;;5034310;28;20399;-76
2022/10/12 03:39:52;;;;;;;5.40;3.00;;;10.00;99.90;;;;;;5034286;28;20410;-75
2022/10/12 03:42:38;;;;;;;4.23;2.83;;;10.00;99.90;;;;;;5032077;28;20422;-75
2022/10/12 03:45:25;;;;;;;5.90;3.03;;;9.90;99.90;;;;;;5033837;28;20486;-74
2022/10/12 03:48:11;;;;;;;6.37;3.10;;;9.80;99.90;;;;;;5033370;28;20488;-75
2022/10/12 03:50:57;;;;;;;6.30;3.87;;;9.80;99.90;;;;;;5037288;28;20446;-76
2022/10/12 03:53:42;;;;;;;10.43;3.67;;;9.80;99.90;;;;;;5036095;28;20492;-75
2022/10/12 03:56:28;;;;;;;6.70;3.50;;;9.70;99.90;;;;;;5038544;28;21158;-75
2022/10/12 03:59:13;;;;;;;8.30;2.97;;;9.60;99.90;;;;;;5047239;28;20768;-75
2022/10/12 04:02:00;;;;;;;15.23;3.43;;;9.60;99.90;;;;;;5032129;28;20944;-76
2022/10/12 04:04:46;;;;;;;9.93;2.90;;;9.50;99.90;;;;;;5031878;28;20486;-75
2022/10/12 04:07:32;;;;;;;9.37;4.20;;;9.50;99.90;;;;;;5038834;28;20782;-75
2022/10/12 04:10:17;;;;;;;5.97;3.10;;;9.50;99.90;;;;;;5034038;28;20484;-74
2022/10/12 04:13:03;;;;;;;5.90;3.03;;;9.50;99.90;;;;;;5031093;28;20442;-75
2022/10/12 04:15:49;;;;;;;5.10;3.00;;;9.50;99.90;;;;;;5038037;28;20455;-76
2022/10/12 04:18:36;;;;;;;5.23;3.17;;;9.60;99.90;;;;;;5043761;28;20497;-75
2022/10/12 04:21:22;;;;;;;5.77;2.83;;;9.60;99.90;;;;;;5038121;28;20456;-76
2022/10/12 04:24:08;;;;;;;5.20;2.73;;;9.40;99.90;;;;;;5030861;28;20511;-75
2022/10/12 04:26:54;;;;;;;4.80;3.40;;;9.40;99.90;;;;;;5031106;28;20436;-75
2022/10/12 04:29:39;;;;;;;9.33;3.47;;;9.30;99.90;;;;;;5038943;28;20411;-75
2022/10/12 04:32:25;;;;;;;12.23;2.90;;;9.20;99.90;;;;;;5038019;28;20919;-76
2022/10/12 04:35:12;;;;;;;5.27;3.17;;;9.20;99.90;;;;;;5038200;28;20837;-75
2022/10/12 04:37:58;;;;;;;4.43;2.63;;;9.20;99.90;;;;;;5040648;28;21024;-76
2022/10/12 04:40:47;;;;;;;5.23;3.20;;;9.00;99.90;;;;;;5031484;28;20417;-74
2022/10/12 04:43:33;;;;;;;10.17;2.87;;;9.00;99.90;;;;;;5032093;28;21052;-76
2022/10/12 04:46:18;;;;;;;5.50;2.70;;;9.00;99.90;;;;;;5034721;28;20399;-75
2022/10/12 04:49:04;;;;;;;10.70;2.90;;;9.10;99.90;;;;;;5030031;28;20907;-75
2022/10/12 04:51:52;;;;;;;8.03;4.43;;;9.20;99.90;;;;;;5028572;28;20938;-76
2022/10/12 04:54:37;;;;;;;6.53;3.30;;;9.30;99.90;;;;;;5028990;28;20467;-75
2022/10/12 04:57:23;;;;;;;5.50;3.30;;;9.20;99.90;;;;;;5038302;28;20415;-75
2022/10/12 05:00:10;;;;;;;12.73;3.30;;;9.30;99.90;;;;;;5037900;28;20435;-76
2022/10/12 05:02:55;;;;;;;4.60;2.73;;;9.30;99.90;;;;;;5024143;28;20440;-76
2022/10/12 05:05:41;;;;;;;8.10;2.70;;;9.20;99.90;;;;;;5034513;28;20456;-75
2022/10/12 05:08:28;;;;;;;4.20;2.67;;;9.10;99.90;;;;;;5034585;28;20415;-75
2022/10/12 05:11:13;;;;;;;2.90;2.10;;;9.20;99.90;;;;;;5038192;28;20430;-75
2022/10/12 05:13:59;;;;;;;6.00;2.97;;;9.30;99.90;;;;;;5031446;28;20476;-76
2022/10/12 05:16:45;;;;;;;6.67;2.60;;;9.20;99.90;;;;;;5031447;28;20452;-75
2022/10/12 05:19:30;;;;;;;4.37;2.20;;;9.30;99.90;;;;;;5033746;28;20436;-75
2022/10/12 05:22:16;;;;;;;5.13;2.67;;;9.20;99.90;;;;;;5029406;28;20455;-76
2022/10/12 05:25:05;;;;;;;5.97;2.73;;;9.20;99.90;;;;;;5033216;28;20419;-75
2022/10/12 05:27:50;;;;;;;7.00;2.80;;;9.20;99.90;;;;;;5033604;28;20498;-75
2022/10/12 05:30:36;;;;;;;5.50;2.70;;;9.20;99.90;;;;;;5035359;28;20450;-75
2022/10/12 05:33:21;;;;;;;6.07;2.97;;;9.20;99.90;;;;;;5033683;28;20400;-76
2022/10/12 05:36:08;;;;;;;4.37;2.90;;;9.20;99.90;;;;;;5037942;28;20440;-75
2022/10/12 05:38:54;;;;;;;6.53;3.63;;;9.10;99.90;;;;;;5038090;28;20528;-75
2022/10/12 05:41:41;;;;;;;6.63;3.10;;;9.00;99.90;;;;;;5035615;28;20418;-75
2022/10/12 05:44:27;;;;;;;5.27;3.47;;;8.90;99.90;;;;;;5031135;28;20399;-75
2022/10/12 05:47:12;;;;;;;7.43;3.23;;;8.90;99.90;;;;;;5041115;28;20783;-75
2022/10/12 05:49:58;;;;;;;5.00;2.83;;;8.90;99.90;;;;;;5028219;28;20420;-75
2022/10/12 05:52:44;;;;;;;9.00;3.93;;;8.80;99.90;;;;;;5037436;28;20422;-75
2022/10/12 05:55:30;;;;;;;9.77;3.37;;;8.80;99.90;;;;;;5038973;28;20480;-76
2022/10/12 05:58:17;;;;;;;3.23;2.83;;;8.70;99.90;;;;;;5023378;28;20815;-75
2022/10/12 06:01:08;;;;;;;7.93;3.80;;;8.70;99.90;;;;;;5027033;28;20477;-76
2022/10/12 06:03:54;;;;;;;6.17;3.40;;;8.70;99.90;;;;;;5031872;28;20537;-76
2022/10/12 06:06:40;;;;;;;5.37;3.30;;;8.70;99.90;;;;;;5035714;28;20565;-76
2022/10/12 06:09:25;;;;;;;4.30;3.27;;;8.70;99.90;;;;;;5027874;28;20398;-76
2022/10/12 06:12:11;;;;;;;5.60;3.37;;;8.80;99.90;;;;;;5026505;28;20590;-76
2022/10/12 06:14:58;;;;;;;4.13;2.87;;;8.90;99.90;;;;;;5022588;28;20849;-76
2022/10/12 06:17:44;;;;;;;12.00;3.70;;;9.00;99.90;;;;;;5027582;28;20904;-76
2022/10/12 06:20:30;;;;;;;5.33;3.33;;;9.20;99.90;;;;;;5021824;28;20479;-76
2022/10/12 06:23:16;;;;;;;5.50;3.13;;;9.20;99.90;;;;;;5027664;28;20497;-76
2022/10/12 06:26:01;;;;;;;5.60;3.37;;;9.20;99.90;;;;;;5026800;28;20466;-76
2022/10/12 06:28:47;;;;;;;6.10;3.70;;;9.20;99.90;;;;;;5029132;28;20422;-76
2022/10/12 06:31:34;;;;;;;13.83;4.50;;;9.30;99.90;;;;;;5025311;28;20461;-76
2022/10/12 06:34:20;;;;;;;6.70;4.10;;;9.40;99.90;;;;;;5032483;28;20611;-76
2022/10/12 06:37:06;;;;;;;12.20;3.50;;;9.50;99.90;;;;;;5027037;28;20463;-76
2022/10/12 06:39:51;;;;;;;6.23;3.83;;;9.60;99.90;;;;;;5024780;28;20456;-76
2022/10/12 06:42:37;;;;;;;18.13;4.37;;;9.60;99.90;;;;;;5026985;28;20595;-76
2022/10/12 06:45:23;;;;;;;5.10;4.37;;;9.70;99.90;;;;;;5026082;28;20544;-76
2022/10/12 06:48:11;;;;;;;9.23;3.60;;;9.70;99.90;;;;;;5023091;28;20420;-76
2022/10/12 06:50:57;;;;;;;12.70;4.10;;;9.60;99.90;;;;;;5023320;28;20968;-75
2022/10/12 06:53:43;;;;;;;17.73;4.10;;;9.60;99.90;;;;;;5029387;28;20538;-76
2022/10/12 06:56:30;;;;;;;13.63;4.00;;;9.50;99.90;;;;;;5033153;28;20478;-75
2022/10/12 06:59:17;;;;;;;7.33;3.40;;;9.60;99.90;;;;;;5029042;28;20435;-76
2022/10/12 07:02:03;;;;;;;5.80;3.70;;;9.70;99.90;;;;;;5026652;28;20971;-75
2022/10/12 07:04:52;;;;;;;14.43;3.37;;;9.80;99.90;;;;;;5031885;28;20436;-76
2022/10/12 07:07:37;;;;;;;6.13;4.43;;;9.90;99.90;;;;;;5026277;28;20948;-76
2022/10/12 07:10:23;;;;;;;6.37;3.53;;;10.00;99.90;;;;;;5025487;28;20710;-76
2022/10/12 07:13:09;;;;;;;8.87;4.30;;;10.10;99.90;;;;;;5028613;28;20418;-76
2022/10/12 07:15:55;;;;;;;10.73;3.70;;;10.10;99.90;;;;;;5024608;28;20555;-76
2022/10/12 07:18:41;;;;;;;7.60;4.20;;;10.20;99.90;;;;;;5023753;28;20437;-76
2022/10/12 07:21:28;;;;;;;8.10;3.40;;;10.40;99.90;;;;;;5027051;28;20879;-76
2022/10/12 07:24:13;;;;;;;5.50;4.17;;;10.50;99.90;;;;;;5032792;28;20937;-76
2022/10/12 07:26:59;;;;;;;12.23;4.53;;;10.70;99.90;;;;;;5031926;28;20423;-76
2022/10/12 07:29:45;;;;;;;10.37;4.53;;;10.70;99.90;;;;;;5032650;28;20454;-76
2022/10/12 07:32:30;;;;;;;5.00;4.03;;;10.70;99.90;;;;;;5036294;28;20503;-76
2022/10/12 07:35:16;;;;;;;7.10;4.67;;;10.80;99.90;;;;;;5035492;28;20475;-75
2022/10/12 07:38:03;;;;;;;7.37;5.00;;;10.90;99.90;;;;;;5033856;28;20499;-76
2022/10/12 07:40:49;;;;;;;12.60;6.17;;;10.90;99.90;;;;;;5028110;28;20525;-76
2022/10/12 07:43:35;;;;;;;9.73;7.03;;;11.00;99.90;;;;;;5032581;28;20436;-75
2022/10/12 07:46:21;;;;;;;12.43;6.23;;;11.10;99.90;;;;;;5033335;28;20399;-76
2022/10/12 07:49:06;;;;;;;13.13;5.93;;;11.10;99.90;;;;;;5028928;28;20403;-76
2022/10/12 07:51:52;;;;;;;11.10;5.40;;;11.20;99.90;;;;;;5028116;28;20461;-76
2022/10/12 07:54:39;;;;;;;11.43;5.93;;;11.20;99.90;;;;;;5032389;28;20451;-76
2022/10/12 07:57:25;;;;;;;10.67;6.37;;;11.40;99.90;;;;;;5028965;28;20901;-76
2022/10/12 08:00:11;;;;;;;12.10;7.80;;;11.50;99.90;;;;;;5024248;28;20431;-76
2022/10/12 08:02:57;;;;;;;21.30;6.90;;;11.50;99.90;;;;;;5025455;28;20947;-76
2022/10/12 08:05:43;;;;;;;17.20;10.90;;;11.60;99.90;;;;;;5028833;28;20777;-76
2022/10/12 08:08:29;;;;;;;18.73;11.07;;;11.80;99.90;;;;;;5026654;28;20478;-76
2022/10/12 08:11:17;;;;;;;13.23;10.10;;;11.90;99.90;;;;;;5028156;28;20468;-75
2022/10/12 08:14:02;;;;;;;24.50;8.77;;;12.00;99.90;;;;;;5026366;28;20427;-76
2022/10/12 08:16:48;;;;;;;12.17;8.90;;;12.10;99.90;;;;;;5030384;28;20415;-76
2022/10/12 08:19:35;;;;;;;14.30;8.40;;;12.20;99.90;;;;;;5026044;28;20435;-76
2022/10/12 08:22:21;;;;;;;11.60;8.60;;;12.20;99.90;;;;;;5025492;28;20440;-76
2022/10/12 08:25:07;;;;;;;12.20;7.80;;;12.30;99.90;;;;;;5038718;28;20417;-76
2022/10/12 08:27:54;;;;;;;10.90;7.50;;;12.40;99.90;;;;;;5032313;28;20431;-76
2022/10/12 08:30:40;;;;;;;14.30;8.00;;;12.40;99.90;;;;;;5028841;28;20442;-76
2022/10/12 08:33:29;;;;;;;11.73;7.00;;;12.50;99.90;;;;;;5029652;28;20472;-76
2022/10/12 08:36:15;;;;;;;14.27;7.60;;;12.60;99.90;;;;;;5030148;28;21086;-76
2022/10/12 08:39:00;;;;;;;21.10;7.70;;;12.70;99.90;;;;;;5029414;28;20412;-76
2022/10/12 08:41:54;;;;;;;13.13;7.33;;;12.90;99.90;;;;;;5024274;28;20464;-76
2022/10/12 08:44:59;;;;;;;12.67;7.40;;;12.90;99.90;;;;;;5028098;28;20444;-76
2022/10/12 08:47:50;;;;;;;17.73;9.03;;;13.00;99.90;;;;;;5027123;28;20419;-76
2022/10/12 08:50:40;;;;;;;14.37;8.73;;;13.10;99.90;;;;;;5029314;28;20460;-76
2022/10/12 08:53:30;;;;;;;19.97;11.80;;;13.20;99.90;;;;;;5026645;28;21005;-76
2022/10/12 08:56:17;;;;;;;17.07;9.30;;;13.30;99.90;;;;;;5030786;28;20470;-76
2022/10/12 08:59:03;;;;;;;18.30;9.50;;;13.50;99.90;;;;;;5025937;28;20448;-76
2022/10/12 09:02:00;;;;;;;11.60;7.53;;;13.70;99.90;;;;;;5029045;28;20899;-76
2022/10/12 09:04:53;;;;;;;16.10;10.53;;;13.90;99.90;;;;;;5032643;28;20581;-76
2022/10/12 09:07:45;;;;;;;18.57;8.97;;;14.10;99.90;;;;;;5028572;28;20452;-77
2022/10/12 09:10:42;;;;;;;16.60;9.33;;;14.30;99.90;;;;;;5022980;28;20439;-76
2022/10/12 09:13:40;;;;;;;14.20;9.90;;;14.50;99.90;;;;;;5027419;28;20431;-76
2022/10/12 09:16:29;;;;;;;15.17;9.50;;;14.60;99.90;;;;;;5024326;28;20477;-77
2022/10/12 09:19:19;;;;;;;16.33;10.50;;;14.70;99.90;;;;;;5023380;28;20462;-76
2022/10/12 09:22:09;;;;;;;17.50;9.77;;;14.80;99.90;;;;;;5017031;28;20468;-77
2022/10/12 09:24:57;;;;;;;16.33;10.30;;;15.00;99.90;;;;;;5031025;28;20824;-76
2022/10/12 09:27:46;;;;;;;15.00;9.20;;;15.00;99.90;;;;;;5030057;28;20486;-77
2022/10/12 09:30:33;;;;;;;20.60;9.27;;;15.10;99.90;;;;;;5025375;28;20577;-76
2022/10/12 09:33:24;;;;;;;18.97;10.40;;;15.20;99.90;;;;;;5036598;28;20437;-76
2022/10/12 09:36:16;;;;;;;14.73;10.40;;;15.30;99.90;;;;;;5035716;28;20476;-75
2022/10/12 09:39:04;;;;;;;27.20;11.10;;;15.50;99.90;;;;;;5024827;28;20472;-75
2022/10/12 09:41:49;;;;;;;17.60;11.47;;;15.70;99.90;;;;;;5026902;28;20522;-75
2022/10/12 09:44:38;;;;;;;21.57;10.50;;;15.80;99.90;;;;;;5031022;28;20945;-75
2022/10/12 09:47:27;;;;;;;18.83;11.17;;;16.00;99.90;;;;;;5035088;28;20424;-74
2022/10/12 09:50:12;;;;;;;16.03;9.40;;;16.10;99.90;;;;;;5026632;28;20395;-74
2022/10/12 09:53:00;;;;;;;21.93;11.73;;;16.30;99.90;;;;;;5023987;28;20446;-74
2022/10/12 09:55:57;;;;;;;17.13;11.33;;;16.20;99.90;;;;;;5026757;28;20830;-74
2022/10/12 09:58:50;;;;;;;18.93;11.27;;;16.20;99.90;;;;;;5026242;28;20459;-74
2022/10/12 10:01:38;;;;;;;13.30;9.80;;;16.20;99.90;;;;;;5034572;28;20450;-75
2022/10/12 10:04:25;;;;;;;18.13;9.63;;;16.30;99.90;;;;;;5040545;28;20494;-75
2022/10/12 10:07:22;;;;;;;14.63;9.30;;;16.50;99.90;;;;;;5026205;28;20572;-73
2022/10/12 10:10:20;;;;;;;16.37;8.07;;;16.60;99.90;;;;;;5029106;28;20888;-75
2022/10/12 10:13:14;;;;;;;25.27;9.20;;;16.70;99.90;;;;;;5031238;28;20473;-73
2022/10/12 10:16:04;;;;;;;16.87;8.10;;;16.80;99.90;;;;;;5030035;28;20575;-74
2022/10/12 10:18:56;;;;;;;10.80;6.87;;;16.50;99.90;;;;;;5027711;28;20506;-75
2022/10/12 10:21:42;;;;;;;10.10;6.67;;;16.30;99.90;;;;;;5025197;28;20468;-74
2022/10/12 10:24:30;;;;;;;11.20;6.00;;;16.20;99.90;;;;;;5031761;28;20428;-77
2022/10/12 10:27:32;;;;;;;14.60;6.73;;;16.10;99.90;;;;;;5032221;28;20452;-77
2022/10/12 10:30:24;;;;;;;10.13;6.13;;;16.00;99.90;;;;;;5035721;28;20988;-76
2022/10/12 10:33:16;;;;;;;13.80;6.60;;;16.00;99.90;;;;;;5040168;28;20440;-77
2022/10/12 10:36:05;;;;;;;18.90;6.60;;;15.90;99.90;;;;;;5038102;28;20442;-77
2022/10/12 10:38:57;;;;;;;14.63;6.30;;;15.90;99.90;;;;;;5037664;28;20423;-77
2022/10/12 10:41:43;;;;;;;16.20;6.97;;;15.80;99.90;;;;;;5038595;28;20447;-77
2022/10/12 10:44:32;;;;;;;18.97;7.67;;;15.80;99.90;;;;;;5040694;28;20511;-77
2022/10/12 10:47:19;;;;;;;16.33;7.00;;;15.80;99.90;;;;;;5029343;28;20515;-77
2022/10/12 10:50:08;;;;;;;12.10;6.93;;;15.80;99.90;;;;;;5038150;28;20782;-77
2022/10/12 10:52:57;;;;;;;10.80;5.23;;;15.80;99.90;;;;;;5037625;28;20940;-77
2022/10/12 10:55:47;;;;;;;10.40;6.60;;;15.80;99.90;;;;;;5027248;28;20487;-77
2022/10/12 10:58:37;;;;;;;12.80;6.40;;;15.80;99.90;;;;;;5037670;28;20428;-76
2022/10/12 11:01:29;;;;;;;11.53;7.67;;;15.80;99.90;;;;;;5034517;28;21208;-77
2022/10/12 11:04:20;;;;;;;13.00;7.90;;;15.80;99.90;;;;;;5039599;28;20425;-76
2022/10/12 11:07:16;;;;;;;20.33;7.60;;;15.80;99.90;;;;;;5030913;28;20811;-76
2022/10/12 11:10:07;;;;;;;12.23;6.50;;;15.90;99.90;;;;;;5028480;28;20475;-76
2022/10/12 11:12:59;;;;;;;13.37;6.50;;;15.90;99.90;;;;;;5038894;28;20443;-77
2022/10/12 11:15:48;;;;;;;21.73;8.47;;;15.90;99.90;;;;;;5028269;28;20467;-76
2022/10/12 11:18:40;;;;;;;15.97;7.90;;;15.90;99.90;;;;;;5041425;28;20552;-76
2022/10/12 11:21:32;;;;;;;15.40;7.60;;;15.90;99.90;;;;;;5036877;28;20526;-76
2022/10/12 11:24:20;;;;;;;9.40;7.10;;;15.90;99.90;;;;;;5031981;28;20981;-75
2022/10/12 11:27:10;;;;;;;9.60;6.67;;;15.90;99.90;;;;;;5024865;28;20426;-74
2022/10/12 11:30:00;;;;;;;13.07;7.00;;;16.00;99.90;;;;;;5021514;28;20415;-75
2022/10/12 11:32:51;;;;;;;13.00;7.40;;;16.00;99.90;;;;;;5025426;28;20776;-74
2022/10/12 11:35:42;;;;;;;13.50;6.90;;;16.00;99.90;;;;;;5023969;28;20541;-76
2022/10/12 11:38:32;;;;;;;10.37;7.03;;;16.10;99.90;;;;;;5028783;28;20437;-75
2022/10/12 11:41:20;;;;;;;18.37;7.57;;;16.10;99.90;;;;;;5026826;28;20529;-77
2022/10/12 11:44:15;;;;;;;9.23;6.43;;;16.20;99.90;;;;;;5027260;28;20492;-78
2022/10/12 11:47:04;;;;;;;13.10;8.17;;;16.20;99.90;;;;;;5033160;28;20407;-78
2022/10/12 11:49:57;;;;;;;19.90;7.90;;;16.00;99.90;;;;;;5039859;28;21000;-78
2022/10/12 11:52:47;;;;;;;16.63;7.10;;;16.00;99.90;;;;;;5034235;28;20437;-78
2022/10/12 11:55:45;;;;;;;13.50;6.60;;;16.10;99.90;;;;;;5048731;22;21024;-78
2022/10/12 11:58:32;;;;;;;23.47;8.83;;;16.30;99.90;;;;;;5032726;28;20433;-76
2022/10/12 12:01:34;;;;;;;12.83;7.50;;;16.40;99.90;;;;;;5033130;28;20862;-76
2022/10/12 12:04:27;;;;;;;16.43;6.90;;;16.50;99.90;;;;;;5033225;28;20575;-77
2022/10/12 12:07:46;;;;;;;13.23;8.67;;;16.70;99.90;;;;;;4993947;28;20486;-77
2022/10/12 12:11:06;;;;;;;19.60;9.40;;;16.90;99.90;;;;;;4895968;29;20505;-77
2022/10/12 12:14:11;;;;;;;14.07;7.77;;;17.20;99.90;;;;;;4962164;28;20885;-77
2022/10/12 12:17:20;;;;;;;28.47;7.93;;;17.30;99.90;;;;;;5008826;28;20547;-77
2022/10/12 12:20:39;;;;;;;19.37;9.50;;;17.50;99.90;;;;;;5016519;28;20941;-77
2022/10/12 12:23:29;;;;;;;14.90;8.90;;;17.60;99.90;;;;;;5011094;28;20433;-76
2022/10/12 12:26:16;;;;;;;15.27;8.63;;;17.70;99.90;;;;;;5012376;28;20436;-77
2022/10/12 12:29:11;;;;;;;17.33;7.67;;;17.80;99.90;;;;;;5013165;28;20551;-77
2022/10/12 12:31:59;;;;;;;12.87;8.60;;;18.10;99.90;;;;;;5016349;28;20428;-77
2022/10/12 12:34:57;;;;;;;13.67;7.77;;;18.40;99.90;;;;;;5002708;28;20449;-77
2022/10/12 12:37:43;;;;;;;19.07;9.73;;;18.40;99.90;;;;;;5016002;28;20418;-77
2022/10/12 12:40:31;;;;;;;11.70;8.33;;;18.40;99.90;;;;;;5011257;28;20934;-77
2022/10/12 12:43:22;;;;;;;11.60;7.90;;;18.60;99.90;;;;;;5017830;28;20461;-77
2022/10/12 12:46:10;;;;;;;11.73;7.57;;;18.60;99.90;;;;;;5007587;28;20464;-77
2022/10/12 12:49:03;;;;;;;17.70;8.93;;;18.70;99.90;;;;;;5015184;28;20407;-77
2022/10/12 12:51:53;;;;;;;16.33;6.97;;;18.90;99.90;;;;;;5023628;28;20484;-77
2022/10/12 12:54:49;;;;;;;18.43;7.70;;;18.80;99.90;;;;;;5012234;28;20432;-76
2022/10/12 12:57:50;;;;;;;13.23;7.53;;;19.00;99.90;;;;;;5017942;28;20477;-77
2022/10/12 13:00:45;;;;;;;19.03;9.53;;;19.30;99.90;;;;;;5018696;28;20440;-77
2022/10/12 13:03:57;;;;;;;14.63;7.87;;;19.40;99.90;;;;;;5008863;28;20433;-76
2022/10/12 13:07:17;;;;;;;13.80;8.40;;;19.60;99.90;;;;;;5017117;28;20446;-77
2022/10/12 13:10:24;;;;;;;13.90;8.27;;;19.70;98.30;;;;;;5014862;28;20444;-77
2022/10/12 13:13:33;;;;;;;13.03;7.70;;;19.80;98.70;;;;;;5016770;28;20441;-77
2022/10/12 13:16:45;;;;;;;15.63;8.30;;;19.90;97.00;;;;;;5010976;28;20567;-77
2022/10/12 13:19:33;;;;;;;21.13;8.00;;;20.00;96.30;;;;;;5015236;28;20507;-77
2022/10/12 13:22:28;;;;;;;11.57;7.73;;;20.00;94.80;;;;;;5009174;28;20400;-77
2022/10/12 13:25:18;;;;;;;16.50;9.53;;;20.10;93.70;;;;;;5006392;28;20827;-77
2022/10/12 13:28:10;;;;;;;14.27;8.50;;;20.00;92.20;;;;;;5010999;28;20478;-77
2022/10/12 13:31:02;;;;;;;14.83;7.23;;;20.00;93.50;;;;;;5009697;28;20523;-76
2022/10/12 13:33:56;;;;;;;19.23;7.67;;;20.10;93.70;;;;;;5013021;28;20500;-76
2022/10/12 13:36:56;;;;;;;15.63;8.27;;;20.20;92.00;;;;;;5011293;28;20531;-76
2022/10/12 13:39:43;;;;;;;10.07;7.27;;;20.00;92.30;;;;;;5013193;28;20426;-76
2022/10/12 13:42:33;;;;;;;13.33;7.23;;;20.30;93.30;;;;;;5017574;28;20480;-77
2022/10/12 13:45:20;;;;;;;16.93;7.57;;;20.40;91.60;;;;;;5003473;28;20563;-76
2022/10/12 13:48:16;;;;;;;12.40;8.47;;;20.30;91.70;;;;;;5010680;28;20421;-76
2022/10/12 13:51:05;;;;;;;24.13;8.07;;;20.00;91.60;;;;;;5016250;28;21057;-77
2022/10/12 13:53:50;;;;;;;12.60;8.63;;;19.60;91.80;;;;;;5006268;28;20453;-76
2022/10/12 13:56:36;;;;;;;10.57;7.77;;;19.50;93.70;;;;;;5021892;28;20525;-76
2022/10/12 13:59:24;;;;;;;19.83;9.17;;;19.60;95.00;;;;;;5014388;28;20938;-77
2022/10/12 14:02:18;;;;;;;23.27;8.87;;;19.60;94.00;;;;;;5009259;28;20438;-76
2022/10/12 14:05:15;;;;;;;14.97;8.83;;;19.70;93.70;;;;;;5012694;28;20422;-77
2022/10/12 14:08:06;;;;;;;15.07;7.70;;;19.50;94.00;;;;;;5012565;28;20935;-77
2022/10/12 14:10:56;;;;;;;14.07;8.33;;;19.40;95.40;;;;;;5010410;28;20430;-77
2022/10/12 14:13:44;;;;;;;16.43;8.40;;;19.20;96.70;;;;;;5007850;28;20453;-77
2022/10/12 14:16:30;;;;;;;17.53;9.23;;;18.90;99.60;;;;;;5013888;28;20480;-77
2022/10/12 14:19:21;;;;;;;18.37;9.33;;;18.70;99.70;;;;;;5010788;28;20445;-77
2022/10/12 14:22:09;;;;;;;15.80;10.53;;;18.40;99.90;;;;;;5011944;28;20780;-77
2022/10/12 14:25:10;;;;;;;27.13;11.37;;;18.30;99.90;;;;;;5010949;28;20849;-76
2022/10/12 14:27:58;;;;;;;22.43;9.47;;;18.20;99.90;;;;;;5008874;28;20416;-76
2022/10/12 14:30:52;;;;;;;19.13;9.60;;;17.90;99.90;;;;;;5008892;28;20456;-76
2022/10/12 14:33:37;;;;;;;15.50;9.80;;;17.90;99.90;;;;;;5009428;28;20501;-76
2022/10/12 14:36:25;;;;;;;23.13;9.70;;;17.80;99.90;;;;;;5007526;28;20620;-76
2022/10/12 14:39:14;;;;;;;22.67;10.07;;;17.80;99.90;;;;;;5012450;28;20969;-76